sensor_id;sensor_type;location;lat;lon;timestamp;pressure;altitude;pressure_sealevel;temperature;humidity
71306;BME280;59097;46.858;18.632;2023-04-08T00:00:53;100585.13;;;4.46;100.00
71306;BME280;59097;46.858;18.632;2023-04-08T00:03:21;100572.47;;;4.32;100.00
71306;BME280;59097;46.858;18.632;2023-04-08T00:05:49;100546.00;;;4.25;100.00
71306;BME280;59097;46.858;18.632;2023-04-08T00:08:18;100581.56;;;4.47;100.00
71306;BME280;59097;46.858;18.632;2023-04-08T00:10:46;100577.09;;;4.47;100.00
71306;BME280;59097;46.858;18.632;2023-04-08T00:13:14;100571.06;;;4.37;100.00
71306;BME280;59097;46.858;18.632;2023-04-08T00:15:42;100580.50;;;4.58;100.00
71306;BME280;59097;46.858;18.632;2023-04-08T00:18:10;100547.66;;;4.26;100.00
71306;BME280;59097;46.858;18.632;2023-04-08T00:20:38;100584.00;;;4.49;100.00
71306;BME280;59097;46.858;18.632;2023-04-08T00:23:06;100584.97;;;4.47;100.00
71306;BME280;59097;46.858;18.632;2023-04-08T00:25:34;100565.69;;;4.39;100.00
71306;BME280;59097;46.858;18.632;2023-04-08T00:28:02;100572.28;;;4.70;100.00
71306;BME280;59097;46.858;18.632;2023-04-08T00:30:30;100582.75;;;4.80;100.00
71306;BME280;59097;46.858;18.632;2023-04-08T00:32:59;100579.81;;;4.83;100.00
71306;BME280;59097;46.858;18.632;2023-04-08T00:35:28;100562.37;;;4.64;100.00
71306;BME280;59097;46.858;18.632;2023-04-08T00:37:56;100582.31;;;4.57;100.00
71306;BME280;59097;46.858;18.632;2023-04-08T00:40:25;100581.44;;;4.39;100.00
71306;BME280;59097;46.858;18.632;2023-04-08T00:42:53;100573.69;;;4.37;100.00
71306;BME280;59097;46.858;18.632;2023-04-08T00:45:20;100586.97;;;4.63;100.00
71306;BME280;59097;46.858;18.632;2023-04-08T00:47:49;100579.37;;;4.60;100.00
71306;BME280;59097;46.858;18.632;2023-04-08T00:50:19;100573.31;;;4.60;100.00
71306;BME280;59097;46.858;18.632;2023-04-08T00:52:48;100569.41;;;4.64;100.00
71306;BME280;59097;46.858;18.632;2023-04-08T00:55:16;100593.53;;;4.77;100.00
71306;BME280;59097;46.858;18.632;2023-04-08T00:57:44;100586.78;;;4.74;100.00
71306;BME280;59097;46.858;18.632;2023-04-08T01:00:14;100591.03;;;4.75;100.00
71306;BME280;59097;46.858;18.632;2023-04-08T01:03:20;100582.03;;;4.78;100.00
71306;BME280;59097;46.858;18.632;2023-04-08T01:05:58;100583.41;;;4.82;100.00
71306;BME280;59097;46.858;18.632;2023-04-08T01:08:28;100549.53;;;4.61;100.00
71306;BME280;59097;46.858;18.632;2023-04-08T01:11:00;100586.03;;;4.82;100.00
71306;BME280;59097;46.858;18.632;2023-04-08T01:13:33;100581.62;;;4.82;100.00
71306;BME280;59097;46.858;18.632;2023-04-08T01:16:03;100557.91;;;4.47;100.00
71306;BME280;59097;46.858;18.632;2023-04-08T01:18:34;100579.25;;;4.62;100.00
71306;BME280;59097;46.858;18.632;2023-04-08T01:21:04;100581.97;;;4.70;100.00
71306;BME280;59097;46.858;18.632;2023-04-08T01:26:21;100588.28;;;4.77;100.00
71306;BME280;59097;46.858;18.632;2023-04-08T01:28:57;100589.69;;;4.71;100.00
71306;BME280;59097;46.858;18.632;2023-04-08T01:31:26;100593.59;;;4.67;100.00
71306;BME280;59097;46.858;18.632;2023-04-08T01:33:58;100590.34;;;4.83;100.00
71306;BME280;59097;46.858;18.632;2023-04-08T01:36:29;100579.50;;;4.86;100.00
71306;BME280;59097;46.858;18.632;2023-04-08T01:39:01;100583.78;;;4.87;100.00
71306;BME280;59097;46.858;18.632;2023-04-08T01:41:30;100584.91;;;4.84;100.00
71306;BME280;59097;46.858;18.632;2023-04-08T01:44:02;100571.31;;;4.71;100.00
71306;BME280;59097;46.858;18.632;2023-04-08T01:46:30;100573.06;;;4.53;100.00
71306;BME280;59097;46.858;18.632;2023-04-08T01:49:00;100589.69;;;4.71;100.00
71306;BME280;59097;46.858;18.632;2023-04-08T01:51:29;100586.09;;;4.72;100.00
71306;BME280;59097;46.858;18.632;2023-04-08T01:53:58;100584.62;;;4.60;100.00
71306;BME280;59097;46.858;18.632;2023-04-08T01:56:28;100582.16;;;4.59;100.00
71306;BME280;59097;46.858;18.632;2023-04-08T01:58:59;100584.34;;;4.63;100.00
71306;BME280;59097;46.858;18.632;2023-04-08T02:01:31;100580.13;;;4.53;100.00
71306;BME280;59097;46.858;18.632;2023-04-08T02:04:02;100535.03;;;4.30;100.00
71306;BME280;59097;46.858;18.632;2023-04-08T02:06:31;100589.87;;;4.60;100.00
71306;BME280;59097;46.858;18.632;2023-04-08T02:09:00;100592.66;;;4.59;100.00
71306;BME280;59097;46.858;18.632;2023-04-08T02:11:29;100581.28;;;4.40;100.00
71306;BME280;59097;46.858;18.632;2023-04-08T02:13:57;100585.72;;;4.40;100.00
71306;BME280;59097;46.858;18.632;2023-04-08T02:16:52;100567.62;;;4.37;100.00
71306;BME280;59097;46.858;18.632;2023-04-08T02:19:29;100559.06;;;4.35;100.00
71306;BME280;59097;46.858;18.632;2023-04-08T02:22:11;100584.00;;;4.49;100.00
71306;BME280;59097;46.858;18.632;2023-04-08T02:24:44;100583.47;;;4.45;100.00
71306;BME280;59097;46.858;18.632;2023-04-08T02:27:14;100592.66;;;4.31;100.00
71306;BME280;59097;46.858;18.632;2023-04-08T02:29:44;100582.94;;;4.41;100.00
71306;BME280;59097;46.858;18.632;2023-04-08T02:32:15;100579.59;;;4.49;100.00
71306;BME280;59097;46.858;18.632;2023-04-08T02:34:45;100589.22;;;4.58;100.00
71306;BME280;59097;46.858;18.632;2023-04-08T02:37:14;100589.47;;;4.65;100.00
71306;BME280;59097;46.858;18.632;2023-04-08T02:39:42;100581.72;;;4.63;100.00
71306;BME280;59097;46.858;18.632;2023-04-08T02:42:10;100583.00;;;4.59;100.00
71306;BME280;59097;46.858;18.632;2023-04-08T02:44:39;100567.31;;;4.50;100.00
71306;BME280;59097;46.858;18.632;2023-04-08T02:47:07;100555.59;;;4.34;100.00
71306;BME280;59097;46.858;18.632;2023-04-08T02:49:35;100585.28;;;4.44;100.00
71306;BME280;59097;46.858;18.632;2023-04-08T02:52:03;100584.88;;;4.39;100.00
71306;BME280;59097;46.858;18.632;2023-04-08T02:54:32;100593.69;;;4.48;100.00
71306;BME280;59097;46.858;18.632;2023-04-08T02:57:00;100596.69;;;4.53;100.00
71306;BME280;59097;46.858;18.632;2023-04-08T02:59:28;100595.06;;;4.52;100.00
71306;BME280;59097;46.858;18.632;2023-04-08T03:01:56;100566.09;;;4.34;100.00
71306;BME280;59097;46.858;18.632;2023-04-08T03:04:24;100594.25;;;4.42;100.00
71306;BME280;59097;46.858;18.632;2023-04-08T03:06:52;100561.06;;;4.23;100.00
71306;BME280;59097;46.858;18.632;2023-04-08T03:09:20;100577.81;;;4.40;100.00
71306;BME280;59097;46.858;18.632;2023-04-08T03:11:49;100586.47;;;4.50;100.00
71306;BME280;59097;46.858;18.632;2023-04-08T03:14:20;100578.12;;;4.37;100.00
71306;BME280;59097;46.858;18.632;2023-04-08T03:16:48;100590.22;;;4.47;100.00
71306;BME280;59097;46.858;18.632;2023-04-08T03:19:17;100573.25;;;4.42;100.00
71306;BME280;59097;46.858;18.632;2023-04-08T03:21:45;100586.47;;;4.50;100.00
71306;BME280;59097;46.858;18.632;2023-04-08T03:24:13;100584.97;;;4.47;100.00
71306;BME280;59097;46.858;18.632;2023-04-08T03:26:40;100589.56;;;4.45;100.00
71306;BME280;59097;46.858;18.632;2023-04-08T03:29:09;100561.84;;;4.33;100.00
71306;BME280;59097;46.858;18.632;2023-04-08T03:31:37;100573.97;;;4.34;100.00
71306;BME280;59097;46.858;18.632;2023-04-08T03:34:05;100567.00;;;4.25;100.00
71306;BME280;59097;46.858;18.632;2023-04-08T03:36:33;100597.59;;;4.44;100.00
71306;BME280;59097;46.858;18.632;2023-04-08T03:39:01;100552.28;;;4.05;100.00
71306;BME280;59097;46.858;18.632;2023-04-08T03:41:30;100597.19;;;4.39;100.00
71306;BME280;59097;46.858;18.632;2023-04-08T03:43:58;100579.66;;;4.30;100.00
71306;BME280;59097;46.858;18.632;2023-04-08T03:46:26;100596.81;;;4.24;100.00
71306;BME280;59097;46.858;18.632;2023-04-08T03:48:54;100576.66;;;4.25;100.00
71306;BME280;59097;46.858;18.632;2023-04-08T03:51:23;100600.34;;;4.42;100.00
71306;BME280;59097;46.858;18.632;2023-04-08T03:53:51;100601.47;;;4.40;100.00
71306;BME280;59097;46.858;18.632;2023-04-08T03:56:18;100591.56;;;4.34;100.00
71306;BME280;59097;46.858;18.632;2023-04-08T03:58:47;100594.16;;;3.97;100.00
71306;BME280;59097;46.858;18.632;2023-04-08T04:01:15;100556.13;;;3.64;100.00
71306;BME280;59097;46.858;18.632;2023-04-08T04:03:44;100563.78;;;3.95;100.00
71306;BME280;59097;46.858;18.632;2023-04-08T04:06:12;100621.09;;;4.36;100.00
71306;BME280;59097;46.858;18.632;2023-04-08T04:08:40;100562.50;;;4.08;100.00
71306;BME280;59097;46.858;18.632;2023-04-08T04:11:08;100624.97;;;4.32;100.00
71306;BME280;59097;46.858;18.632;2023-04-08T04:13:36;100616.69;;;4.36;100.00
71306;BME280;59097;46.858;18.632;2023-04-08T04:16:04;100607.00;;;4.37;100.00
71306;BME280;59097;46.858;18.632;2023-04-08T04:18:32;100623.81;;;4.54;100.00
71306;BME280;59097;46.858;18.632;2023-04-08T04:21:04;100627.53;;;4.51;100.00
71306;BME280;59097;46.858;18.632;2023-04-08T04:23:33;100634.16;;;4.55;100.00
71306;BME280;59097;46.858;18.632;2023-04-08T04:26:01;100624.41;;;4.38;100.00
71306;BME280;59097;46.858;18.632;2023-04-08T04:28:29;100631.28;;;4.49;100.00
71306;BME280;59097;46.858;18.632;2023-04-08T04:30:57;100627.25;;;4.54;100.00
71306;BME280;59097;46.858;18.632;2023-04-08T04:33:25;100631.22;;;4.58;100.00
71306;BME280;59097;46.858;18.632;2023-04-08T04:35:53;100634.53;;;4.60;100.00
71306;BME280;59097;46.858;18.632;2023-04-08T04:38:22;100630.94;;;4.61;100.00
71306;BME280;59097;46.858;18.632;2023-04-08T04:40:50;100613.06;;;4.47;100.00
71306;BME280;59097;46.858;18.632;2023-04-08T04:43:18;100634.03;;;4.57;100.00
71306;BME280;59097;46.858;18.632;2023-04-08T04:45:46;100610.16;;;4.40;100.00
71306;BME280;59097;46.858;18.632;2023-04-08T04:48:14;100640.00;;;4.39;100.00
71306;BME280;59097;46.858;18.632;2023-04-08T04:50:42;100637.37;;;4.39;100.00
71306;BME280;59097;46.858;18.632;2023-04-08T04:53:10;100643.19;;;4.43;100.00
71306;BME280;59097;46.858;18.632;2023-04-08T04:55:38;100628.59;;;4.31;100.00
71306;BME280;59097;46.858;18.632;2023-04-08T04:58:06;100631.72;;;4.44;100.00
71306;BME280;59097;46.858;18.632;2023-04-08T05:00:35;100650.56;;;4.30;100.00
71306;BME280;59097;46.858;18.632;2023-04-08T05:03:03;100654.66;;;4.42;100.00
71306;BME280;59097;46.858;18.632;2023-04-08T05:05:31;100636.44;;;4.40;100.00
71306;BME280;59097;46.858;18.632;2023-04-08T05:08:00;100654.66;;;4.42;100.00
71306;BME280;59097;46.858;18.632;2023-04-08T05:10:29;100607.97;;;3.99;100.00
71306;BME280;59097;46.858;18.632;2023-04-08T05:12:58;100656.12;;;4.17;100.00
71306;BME280;59097;46.858;18.632;2023-04-08T05:15:26;100653.84;;;4.32;100.00
71306;BME280;59097;46.858;18.632;2023-04-08T05:17:54;100652.81;;;4.15;100.00
71306;BME280;59097;46.858;18.632;2023-04-08T05:20:22;100652.38;;;4.20;100.00
71306;BME280;59097;46.858;18.632;2023-04-08T05:22:50;100657.22;;;4.15;100.00
71306;BME280;59097;46.858;18.632;2023-04-08T05:25:18;100662.72;;;4.31;100.00
71306;BME280;59097;46.858;18.632;2023-04-08T05:27:46;100651.03;;;4.16;100.00
71306;BME280;59097;46.858;18.632;2023-04-08T05:30:15;100651.72;;;4.08;100.00
71306;BME280;59097;46.858;18.632;2023-04-08T05:32:43;100658.44;;;4.30;100.00
71306;BME280;59097;46.858;18.632;2023-04-08T05:35:11;100675.00;;;4.30;100.00
71306;BME280;59097;46.858;18.632;2023-04-08T05:37:39;100667.37;;;4.47;100.00
71306;BME280;59097;46.858;18.632;2023-04-08T05:40:08;100667.59;;;4.53;100.00
71306;BME280;59097;46.858;18.632;2023-04-08T05:42:38;100672.75;;;4.55;100.00
71306;BME280;59097;46.858;18.632;2023-04-08T05:46:10;100671.31;;;5.15;100.00
71306;BME280;59097;46.858;18.632;2023-04-08T05:48:39;100671.31;;;5.15;100.00
71306;BME280;59097;46.858;18.632;2023-04-08T05:51:14;100646.84;;;4.23;100.00
71306;BME280;59097;46.858;18.632;2023-04-08T05:53:44;100669.72;;;4.40;100.00
71306;BME280;59097;46.858;18.632;2023-04-08T05:56:14;100669.78;;;4.21;100.00
71306;BME280;59097;46.858;18.632;2023-04-08T05:58:41;100684.81;;;4.38;100.00
71306;BME280;59097;46.858;18.632;2023-04-08T06:01:10;100676.78;;;4.39;100.00
71306;BME280;59097;46.858;18.632;2023-04-08T06:03:38;100678.59;;;4.39;100.00
71306;BME280;59097;46.858;18.632;2023-04-08T06:06:10;100687.69;;;4.44;100.00
71306;BME280;59097;46.858;18.632;2023-04-08T06:08:53;100666.91;;;4.14;100.00
71306;BME280;59097;46.858;18.632;2023-04-08T06:11:48;100683.53;;;4.42;100.00
71306;BME280;59097;46.858;18.632;2023-04-08T06:14:15;100679.56;;;4.38;100.00
71306;BME280;59097;46.858;18.632;2023-04-08T06:16:41;100687.47;;;4.28;100.00
71306;BME280;59097;46.858;18.632;2023-04-08T06:19:08;100673.31;;;4.49;100.00
71306;BME280;59097;46.858;18.632;2023-04-08T06:21:34;100696.28;;;4.74;100.00
71306;BME280;59097;46.858;18.632;2023-04-08T06:24:00;100686.31;;;4.77;100.00
71306;BME280;59097;46.858;18.632;2023-04-08T06:26:32;100692.41;;;5.05;100.00
71306;BME280;59097;46.858;18.632;2023-04-08T06:29:01;100692.41;;;5.05;100.00
71306;BME280;59097;46.858;18.632;2023-04-08T06:31:29;100693.50;;;4.38;100.00
71306;BME280;59097;46.858;18.632;2023-04-08T06:33:58;100704.44;;;4.71;100.00
71306;BME280;59097;46.858;18.632;2023-04-08T06:36:26;100704.44;;;4.71;100.00
71306;BME280;59097;46.858;18.632;2023-04-08T06:38:54;100676.91;;;4.38;100.00
71306;BME280;59097;46.858;18.632;2023-04-08T06:41:22;100701.25;;;4.77;100.00
71306;BME280;59097;46.858;18.632;2023-04-08T06:43:50;100695.31;;;4.75;100.00
71306;BME280;59097;46.858;18.632;2023-04-08T06:46:18;100701.59;;;4.91;100.00
71306;BME280;59097;46.858;18.632;2023-04-08T06:49:02;100703.84;;;4.86;100.00
71306;BME280;59097;46.858;18.632;2023-04-08T06:51:48;100700.91;;;4.53;100.00
71306;BME280;59097;46.858;18.632;2023-04-08T06:54:14;100712.28;;;4.43;100.00
71306;BME280;59097;46.858;18.632;2023-04-08T06:56:41;100693.88;;;4.53;100.00
71306;BME280;59097;46.858;18.632;2023-04-08T06:59:07;100708.91;;;4.61;100.00
71306;BME280;59097;46.858;18.632;2023-04-08T07:01:33;100718.37;;;4.44;100.00
71306;BME280;59097;46.858;18.632;2023-04-08T07:04:05;100716.78;;;5.25;100.00
71306;BME280;59097;46.858;18.632;2023-04-08T07:06:34;100716.78;;;5.25;100.00
71306;BME280;59097;46.858;18.632;2023-04-08T07:09:02;100650.00;;;4.36;100.00
71306;BME280;59097;46.858;18.632;2023-04-08T07:11:31;100725.34;;;4.99;100.00
71306;BME280;59097;46.858;18.632;2023-04-08T07:13:59;100722.72;;;4.72;100.00
71306;BME280;59097;46.858;18.632;2023-04-08T07:16:27;100683.19;;;4.64;100.00
71306;BME280;59097;46.858;18.632;2023-04-08T07:18:55;100716.91;;;4.69;100.00
71306;BME280;59097;46.858;18.632;2023-04-08T07:21:23;100729.75;;;4.72;100.00
71306;BME280;59097;46.858;18.632;2023-04-08T07:23:52;100710.19;;;4.57;100.00
71306;BME280;59097;46.858;18.632;2023-04-08T07:26:25;100717.50;;;4.53;100.00
71306;BME280;59097;46.858;18.632;2023-04-08T07:29:23;100733.22;;;4.72;100.00
71306;BME280;59097;46.858;18.632;2023-04-08T07:32:05;100733.41;;;4.98;100.00
71306;BME280;59097;46.858;18.632;2023-04-08T07:34:34;100739.25;;;4.82;100.00
71306;BME280;59097;46.858;18.632;2023-04-08T07:37:01;100740.25;;;5.08;100.00
71306;BME280;59097;46.858;18.632;2023-04-08T07:39:28;100741.91;;;5.09;100.00
71306;BME280;59097;46.858;18.632;2023-04-08T07:41:54;100673.66;;;4.63;100.00
71306;BME280;59097;46.858;18.632;2023-04-08T07:44:20;100748.03;;;5.28;100.00
71306;BME280;59097;46.858;18.632;2023-04-08T07:46:52;100744.38;;;5.11;100.00
71306;BME280;59097;46.858;18.632;2023-04-08T07:49:21;100753.09;;;4.84;100.00
71306;BME280;59097;46.858;18.632;2023-04-08T07:51:49;100758.56;;;5.00;100.00
71306;BME280;59097;46.858;18.632;2023-04-08T07:54:18;100756.44;;;5.04;100.00
71306;BME280;59097;46.858;18.632;2023-04-08T07:56:46;100749.22;;;5.16;100.00
71306;BME280;59097;46.858;18.632;2023-04-08T07:59:14;100757.34;;;4.95;100.00
71306;BME280;59097;46.858;18.632;2023-04-08T08:01:42;100755.66;;;5.31;100.00
71306;BME280;59097;46.858;18.632;2023-04-08T08:04:11;100754.12;;;5.28;100.00
71306;BME280;59097;46.858;18.632;2023-04-08T08:06:40;100738.84;;;5.14;100.00
71306;BME280;59097;46.858;18.632;2023-04-08T08:09:21;100763.91;;;5.36;100.00
71306;BME280;59097;46.858;18.632;2023-04-08T08:11:49;100763.38;;;5.32;100.00
71306;BME280;59097;46.858;18.632;2023-04-08T08:14:31;100767.38;;;5.36;100.00
71306;BME280;59097;46.858;18.632;2023-04-08T08:16:57;100769.28;;;5.44;100.00
71306;BME280;59097;46.858;18.632;2023-04-08T08:19:23;100770.38;;;5.14;100.00
71306;BME280;59097;46.858;18.632;2023-04-08T08:21:49;100776.06;;;5.09;100.00
71306;BME280;59097;46.858;18.632;2023-04-08T08:24:17;100778.12;;;5.16;100.00
71306;BME280;59097;46.858;18.632;2023-04-08T08:26:49;100771.50;;;5.12;100.00
71306;BME280;59097;46.858;18.632;2023-04-08T08:29:17;100779.00;;;5.06;100.00
71306;BME280;59097;46.858;18.632;2023-04-08T08:31:45;100780.41;;;5.01;100.00
71306;BME280;59097;46.858;18.632;2023-04-08T08:34:15;100781.38;;;5.00;100.00
71306;BME280;59097;46.858;18.632;2023-04-08T08:36:43;100784.62;;;4.84;100.00
71306;BME280;59097;46.858;18.632;2023-04-08T08:39:11;100784.06;;;4.90;100.00
71306;BME280;59097;46.858;18.632;2023-04-08T08:41:39;100783.41;;;5.16;100.00
71306;BME280;59097;46.858;18.632;2023-04-08T08:44:08;100782.00;;;5.12;100.00
71306;BME280;59097;46.858;18.632;2023-04-08T08:46:44;100781.59;;;5.43;100.00
71306;BME280;59097;46.858;18.632;2023-04-08T08:49:14;100780.88;;;5.24;100.00
71306;BME280;59097;46.858;18.632;2023-04-08T08:51:57;100791.69;;;5.21;100.00
71306;BME280;59097;46.858;18.632;2023-04-08T08:54:58;100787.88;;;4.96;100.00
71306;BME280;59097;46.858;18.632;2023-04-08T08:57:24;100779.50;;;5.20;100.00
71306;BME280;59097;46.858;18.632;2023-04-08T08:59:51;100795.12;;;5.48;100.00
71306;BME280;59097;46.858;18.632;2023-04-08T09:05:11;100805.75;;;5.56;100.00
71306;BME280;59097;46.858;18.632;2023-04-08T09:07:44;100808.69;;;6.16;100.00
71306;BME280;59097;46.858;18.632;2023-04-08T09:10:14;100808.69;;;6.16;100.00
71306;BME280;59097;46.858;18.632;2023-04-08T09:12:54;100818.53;;;5.42;100.00
71306;BME280;59097;46.858;18.632;2023-04-08T09:15:23;100815.25;;;5.40;100.00
71306;BME280;59097;46.858;18.632;2023-04-08T09:17:51;100820.09;;;5.35;100.00
71306;BME280;59097;46.858;18.632;2023-04-08T09:20:19;100819.78;;;5.75;100.00
71306;BME280;59097;46.858;18.632;2023-04-08T09:22:58;100802.66;;;5.61;100.00
71306;BME280;59097;46.858;18.632;2023-04-08T09:25:40;100825.53;;;5.33;100.00
71306;BME280;59097;46.858;18.632;2023-04-08T09:28:38;100835.19;;;5.60;100.00
71306;BME280;59097;46.858;18.632;2023-04-08T09:31:22;100801.53;;;5.63;100.00
71306;BME280;59097;46.858;18.632;2023-04-08T09:34:14;100832.09;;;5.74;100.00
71306;BME280;59097;46.858;18.632;2023-04-08T09:36:49;100819.28;;;5.61;100.00
71306;BME280;59097;46.858;18.632;2023-04-08T09:39:15;100837.94;;;5.95;100.00
71306;BME280;59097;46.858;18.632;2023-04-08T09:41:42;100832.91;;;6.02;100.00
71306;BME280;59097;46.858;18.632;2023-04-08T09:44:15;100833.91;;;6.62;100.00
71306;BME280;59097;46.858;18.632;2023-04-08T09:52:19;100843.50;;;5.92;100.00
71306;BME280;59097;46.858;18.632;2023-04-08T09:55:03;100842.75;;;5.72;100.00
71306;BME280;59097;46.858;18.632;2023-04-08T10:00:32;100841.25;;;5.97;100.00
71306;BME280;59097;46.858;18.632;2023-04-08T10:03:27;100844.13;;;6.21;100.00
71306;BME280;59097;46.858;18.632;2023-04-08T10:06:27;100838.34;;;6.36;100.00
71306;BME280;59097;46.858;18.632;2023-04-08T10:08:55;100841.47;;;6.21;100.00
71306;BME280;59097;46.858;18.632;2023-04-08T10:11:22;100839.47;;;6.15;100.00
71306;BME280;59097;46.858;18.632;2023-04-08T10:13:48;100837.63;;;5.98;100.00
71306;BME280;59097;46.858;18.632;2023-04-08T10:18:42;100838.19;;;6.19;100.00
71306;BME280;59097;46.858;18.632;2023-04-08T10:21:50;100839.06;;;6.89;100.00
71306;BME280;59097;46.858;18.632;2023-04-08T10:24:19;100839.06;;;6.89;100.00
71306;BME280;59097;46.858;18.632;2023-04-08T10:26:52;100838.41;;;6.44;100.00
71306;BME280;59097;46.858;18.632;2023-04-08T10:31:49;100843.69;;;6.87;100.00
71306;BME280;59097;46.858;18.632;2023-04-08T10:34:19;100844.03;;;6.92;98.98
71306;BME280;59097;46.858;18.632;2023-04-08T10:36:48;100843.53;;;6.27;100.00
71306;BME280;59097;46.858;18.632;2023-04-08T10:39:48;100802.13;;;6.38;100.00
71306;BME280;59097;46.858;18.632;2023-04-08T10:42:14;100845.62;;;6.85;99.17
71306;BME280;59097;46.858;18.632;2023-04-08T10:44:43;100832.75;;;6.21;100.00
71306;BME280;59097;46.858;18.632;2023-04-08T10:47:11;100843.87;;;6.50;100.00
71306;BME280;59097;46.858;18.632;2023-04-08T10:49:37;100820.84;;;6.52;100.00
71306;BME280;59097;46.858;18.632;2023-04-08T10:52:07;100845.16;;;6.64;98.61
71306;BME280;59097;46.858;18.632;2023-04-08T10:54:34;100852.22;;;6.63;98.89
71306;BME280;59097;46.858;18.632;2023-04-08T10:57:07;100850.03;;;7.28;96.96
71306;BME280;59097;46.858;18.632;2023-04-08T10:59:36;100850.03;;;7.28;96.96
71306;BME280;59097;46.858;18.632;2023-04-08T11:02:12;100836.19;;;6.57;99.94
71306;BME280;59097;46.858;18.632;2023-04-08T11:04:41;100852.22;;;6.63;97.51
71306;BME280;59097;46.858;18.632;2023-04-08T11:07:14;100851.75;;;6.68;98.33
71306;BME280;59097;46.858;18.632;2023-04-08T11:09:44;100845.38;;;6.53;98.25
71306;BME280;59097;46.858;18.632;2023-04-08T11:12:14;100845.53;;;6.69;98.49
71306;BME280;59097;46.858;18.632;2023-04-08T11:14:46;100838.88;;;6.65;97.72
71306;BME280;59097;46.858;18.632;2023-04-08T11:17:30;100829.66;;;6.61;98.25
71306;BME280;59097;46.858;18.632;2023-04-08T11:20:14;100831.53;;;6.51;97.37
71306;BME280;59097;46.858;18.632;2023-04-08T11:22:41;100828.91;;;6.51;98.46
71306;BME280;59097;46.858;18.632;2023-04-08T11:25:07;100844.38;;;6.71;98.27
71306;BME280;59097;46.858;18.632;2023-04-08T11:27:35;100847.06;;;6.54;98.74
71306;BME280;59097;46.858;18.632;2023-04-08T11:30:02;100833.06;;;6.36;99.61
71306;BME280;59097;46.858;18.632;2023-04-08T11:32:35;100847.34;;;7.61;94.57
71306;BME280;59097;46.858;18.632;2023-04-08T11:35:06;100847.34;;;7.61;94.57
71306;BME280;59097;46.858;18.632;2023-04-08T11:37:39;100838.72;;;6.84;95.35
71306;BME280;59097;46.858;18.632;2023-04-08T11:40:09;100852.69;;;7.02;95.58
71306;BME280;59097;46.858;18.632;2023-04-08T11:42:38;100843.25;;;6.74;97.47
71306;BME280;59097;46.858;18.632;2023-04-08T11:45:14;100841.03;;;7.13;97.65
71306;BME280;59097;46.858;18.632;2023-04-08T11:47:43;100846.31;;;6.87;99.85
71306;BME280;59097;46.858;18.632;2023-04-08T11:50:21;100849.00;;;7.62;96.40
71306;BME280;59097;46.858;18.632;2023-04-08T11:52:50;100851.25;;;7.49;95.17
71306;BME280;59097;46.858;18.632;2023-04-08T11:55:47;100848.56;;;7.75;93.46
71306;BME280;59097;46.858;18.632;2023-04-08T11:58:14;100841.91;;;7.21;94.51
71306;BME280;59097;46.858;18.632;2023-04-08T12:00:40;100813.13;;;7.44;92.64
71306;BME280;59097;46.858;18.632;2023-04-08T12:03:07;100791.06;;;7.45;92.44
71306;BME280;59097;46.858;18.632;2023-04-08T12:05:34;100837.31;;;7.31;93.60
71306;BME280;59097;46.858;18.632;2023-04-08T12:08:01;100840.97;;;6.79;96.56
71306;BME280;59097;46.858;18.632;2023-04-08T12:10:34;100838.88;;;7.84;94.14
71306;BME280;59097;46.858;18.632;2023-04-08T12:13:03;100838.88;;;7.84;94.14
71306;BME280;59097;46.858;18.632;2023-04-08T12:15:31;100832.16;;;7.22;93.78
71306;BME280;59097;46.858;18.632;2023-04-08T12:17:59;100839.41;;;7.20;93.69
71306;BME280;59097;46.858;18.632;2023-04-08T12:20:28;100845.94;;;7.41;94.84
71306;BME280;59097;46.858;18.632;2023-04-08T12:22:56;100839.41;;;7.20;95.85
71306;BME280;59097;46.858;18.632;2023-04-08T12:25:24;100850.69;;;7.04;98.22
71306;BME280;59097;46.858;18.632;2023-04-08T12:27:52;100848.47;;;7.17;95.38
71306;BME280;59097;46.858;18.632;2023-04-08T12:30:21;100835.44;;;7.16;96.27
71306;BME280;59097;46.858;18.632;2023-04-08T12:33:18;100843.97;;;7.35;96.81
71306;BME280;59097;46.858;18.632;2023-04-08T12:36:11;100829.44;;;7.39;96.52
71306;BME280;59097;46.858;18.632;2023-04-08T12:38:37;100830.88;;;7.68;96.11
71306;BME280;59097;46.858;18.632;2023-04-08T12:41:04;100835.34;;;7.33;97.41
71306;BME280;59097;46.858;18.632;2023-04-08T12:43:30;100819.28;;;7.52;93.44
71306;BME280;59097;46.858;18.632;2023-04-08T12:45:57;100841.13;;;7.71;94.22
71306;BME280;59097;46.858;18.632;2023-04-08T12:48:30;100836.59;;;7.97;89.82
71306;BME280;59097;46.858;18.632;2023-04-08T12:50:59;100836.59;;;7.97;89.82
71306;BME280;59097;46.858;18.632;2023-04-08T12:53:27;100848.59;;;7.41;92.04
71306;BME280;59097;46.858;18.632;2023-04-08T12:55:55;100826.69;;;7.49;92.55
71306;BME280;59097;46.858;18.632;2023-04-08T12:58:24;100837.16;;;6.99;95.34
71306;BME280;59097;46.858;18.632;2023-04-08T13:00:52;100836.44;;;7.48;96.07
71306;BME280;59097;46.858;18.632;2023-04-08T13:03:20;100833.06;;;7.30;94.81
71306;BME280;59097;46.858;18.632;2023-04-08T13:05:49;100841.19;;;7.11;93.27
71306;BME280;59097;46.858;18.632;2023-04-08T13:08:26;100835.66;;;7.22;96.42
71306;BME280;59097;46.858;18.632;2023-04-08T13:11:23;100811.19;;;7.12;94.66
71306;BME280;59097;46.858;18.632;2023-04-08T13:14:05;100823.72;;;7.18;95.89
71306;BME280;59097;46.858;18.632;2023-04-08T13:16:31;100832.03;;;7.31;95.33
71306;BME280;59097;46.858;18.632;2023-04-08T13:18:57;100831.81;;;7.50;94.26
71306;BME280;59097;46.858;18.632;2023-04-08T13:21:23;100818.59;;;7.42;93.64